sensor_id;sensor_type;location;lat;lon;timestamp;P1;durP1;ratioP1;P2;durP2;ratioP2
14052;SDS011;7101;51.600;7.310;2022-08-16T00:00:24;3.58;;;3.17;;
14052;SDS011;7101;51.600;7.310;2022-08-16T00:02:53;5.63;;;3.60;;
14052;SDS011;7101;51.600;7.310;2022-08-16T00:05:21;4.93;;;3.00;;
14052;SDS011;7101;51.600;7.310;2022-08-16T00:07:51;4.75;;;3.35;;
14052;SDS011;7101;51.600;7.310;2022-08-16T00:10:19;3.95;;;3.13;;
14052;SDS011;7101;51.600;7.310;2022-08-16T00:12:47;4.40;;;3.33;;
14052;SDS011;7101;51.600;7.310;2022-08-16T00:15:19;5.65;;;3.80;;
14052;SDS011;7101;51.600;7.310;2022-08-16T00:17:48;4.35;;;3.47;;
14052;SDS011;7101;51.600;7.310;2022-08-16T00:20:15;6.13;;;3.53;;
14052;SDS011;7101;51.600;7.310;2022-08-16T00:22:43;3.97;;;3.45;;
14052;SDS011;7101;51.600;7.310;2022-08-16T00:25:13;4.15;;;3.70;;
14052;SDS011;7101;51.600;7.310;2022-08-16T00:27:42;3.80;;;3.35;;
14052;SDS011;7101;51.600;7.310;2022-08-16T00:30:10;4.30;;;3.58;;
14052;SDS011;7101;51.600;7.310;2022-08-16T00:32:39;5.05;;;3.65;;
14052;SDS011;7101;51.600;7.310;2022-08-16T00:35:10;5.25;;;3.58;;
14052;SDS011;7101;51.600;7.310;2022-08-16T00:37:39;3.58;;;3.08;;
14052;SDS011;7101;51.600;7.310;2022-08-16T00:40:07;4.93;;;3.47;;
14052;SDS011;7101;51.600;7.310;2022-08-16T00:42:37;6.65;;;3.72;;
14052;SDS011;7101;51.600;7.310;2022-08-16T00:45:06;4.28;;;3.03;;
14052;SDS011;7101;51.600;7.310;2022-08-16T00:47:42;6.43;;;3.65;;
14052;SDS011;7101;51.600;7.310;2022-08-16T00:50:11;3.97;;;3.55;;
14052;SDS011;7101;51.600;7.310;2022-08-16T00:52:39;4.60;;;3.60;;
14052;SDS011;7101;51.600;7.310;2022-08-16T00:55:07;7.43;;;3.88;;
14052;SDS011;7101;51.600;7.310;2022-08-16T00:57:34;15.15;;;3.88;;
14052;SDS011;7101;51.600;7.310;2022-08-16T01:00:05;4.40;;;3.40;;
14052;SDS011;7101;51.600;7.310;2022-08-16T01:02:34;4.97;;;3.05;;
14052;SDS011;7101;51.600;7.310;2022-08-16T01:05:00;6.38;;;3.60;;
14052;SDS011;7101;51.600;7.310;2022-08-16T01:07:27;4.32;;;3.03;;
14052;SDS011;7101;51.600;7.310;2022-08-16T01:09:54;4.20;;;3.40;;
14052;SDS011;7101;51.600;7.310;2022-08-16T01:12:22;3.38;;;3.08;;
14052;SDS011;7101;51.600;7.310;2022-08-16T01:14:49;4.10;;;3.05;;
14052;SDS011;7101;51.600;7.310;2022-08-16T01:17:20;4.45;;;3.22;;
14052;SDS011;7101;51.600;7.310;2022-08-16T01:19:49;4.18;;;3.10;;
14052;SDS011;7101;51.600;7.310;2022-08-16T01:22:21;5.05;;;3.50;;
14052;SDS011;7101;51.600;7.310;2022-08-16T01:24:56;4.07;;;3.50;;
14052;SDS011;7101;51.600;7.310;2022-08-16T01:27:26;3.85;;;3.05;;
14052;SDS011;7101;51.600;7.310;2022-08-16T01:29:58;4.25;;;3.45;;
14052;SDS011;7101;51.600;7.310;2022-08-16T01:32:31;3.35;;;3.05;;
14052;SDS011;7101;51.600;7.310;2022-08-16T01:35:03;5.43;;;3.30;;
14052;SDS011;7101;51.600;7.310;2022-08-16T01:37:36;3.38;;;3.00;;
14052;SDS011;7101;51.600;7.310;2022-08-16T01:40:07;5.03;;;2.90;;
14052;SDS011;7101;51.600;7.310;2022-08-16T01:42:34;4.03;;;3.63;;
14052;SDS011;7101;51.600;7.310;2022-08-16T01:45:02;4.55;;;3.63;;
14052;SDS011;7101;51.600;7.310;2022-08-16T01:47:29;4.45;;;3.38;;
14052;SDS011;7101;51.600;7.310;2022-08-16T01:49:57;4.18;;;3.30;;
14052;SDS011;7101;51.600;7.310;2022-08-16T01:52:24;4.20;;;3.40;;
14052;SDS011;7101;51.600;7.310;2022-08-16T01:54:51;3.53;;;3.20;;
14052;SDS011;7101;51.600;7.310;2022-08-16T01:57:19;3.83;;;3.40;;
14052;SDS011;7101;51.600;7.310;2022-08-16T01:59:46;5.03;;;3.20;;
14052;SDS011;7101;51.600;7.310;2022-08-16T02:02:13;5.18;;;3.00;;
14052;SDS011;7101;51.600;7.310;2022-08-16T02:04:40;3.85;;;3.42;;
14052;SDS011;7101;51.600;7.310;2022-08-16T02:07:07;3.97;;;3.58;;
14052;SDS011;7101;51.600;7.310;2022-08-16T02:09:35;4.70;;;3.47;;
14052;SDS011;7101;51.600;7.310;2022-08-16T02:12:04;5.07;;;3.30;;
14052;SDS011;7101;51.600;7.310;2022-08-16T02:14:35;4.05;;;3.45;;
14052;SDS011;7101;51.600;7.310;2022-08-16T02:17:03;3.85;;;3.45;;
14052;SDS011;7101;51.600;7.310;2022-08-16T02:19:31;3.35;;;3.03;;
14052;SDS011;7101;51.600;7.310;2022-08-16T02:22:00;4.88;;;3.70;;
14052;SDS011;7101;51.600;7.310;2022-08-16T02:24:28;4.72;;;3.40;;
14052;SDS011;7101;51.600;7.310;2022-08-16T02:26:55;5.20;;;3.38;;
14052;SDS011;7101;51.600;7.310;2022-08-16T02:29:22;12.80;;;3.60;;
14052;SDS011;7101;51.600;7.310;2022-08-16T02:31:50;4.90;;;3.60;;
14052;SDS011;7101;51.600;7.310;2022-08-16T02:34:18;5.00;;;3.63;;
14052;SDS011;7101;51.600;7.310;2022-08-16T02:36:46;5.95;;;3.63;;
14052;SDS011;7101;51.600;7.310;2022-08-16T02:39:14;5.32;;;3.45;;
14052;SDS011;7101;51.600;7.310;2022-08-16T02:41:41;5.07;;;3.58;;
14052;SDS011;7101;51.600;7.310;2022-08-16T02:44:10;5.72;;;3.88;;
14052;SDS011;7101;51.600;7.310;2022-08-16T02:46:38;5.65;;;3.90;;
14052;SDS011;7101;51.600;7.310;2022-08-16T02:49:07;7.30;;;3.80;;
14052;SDS011;7101;51.600;7.310;2022-08-16T02:51:34;6.28;;;3.83;;
14052;SDS011;7101;51.600;7.310;2022-08-16T02:54:02;5.25;;;3.90;;
14052;SDS011;7101;51.600;7.310;2022-08-16T02:56:30;5.55;;;3.53;;
14052;SDS011;7101;51.600;7.310;2022-08-16T02:58:57;4.93;;;3.55;;
14052;SDS011;7101;51.600;7.310;2022-08-16T03:01:25;5.07;;;4.00;;
14052;SDS011;7101;51.600;7.310;2022-08-16T03:03:55;4.10;;;3.70;;
14052;SDS011;7101;51.600;7.310;2022-08-16T03:06:25;6.10;;;3.50;;
14052;SDS011;7101;51.600;7.310;2022-08-16T03:08:52;5.93;;;3.90;;
14052;SDS011;7101;51.600;7.310;2022-08-16T03:11:19;6.68;;;3.78;;
14052;SDS011;7101;51.600;7.310;2022-08-16T03:13:47;5.22;;;4.03;;
14052;SDS011;7101;51.600;7.310;2022-08-16T03:16:16;4.60;;;3.92;;
14052;SDS011;7101;51.600;7.310;2022-08-16T03:18:42;6.40;;;3.92;;
14052;SDS011;7101;51.600;7.310;2022-08-16T03:21:10;6.95;;;3.78;;
14052;SDS011;7101;51.600;7.310;2022-08-16T03:23:39;5.13;;;4.45;;
14052;SDS011;7101;51.600;7.310;2022-08-16T03:26:06;8.57;;;3.95;;
14052;SDS011;7101;51.600;7.310;2022-08-16T03:28:33;4.72;;;4.20;;
14052;SDS011;7101;51.600;7.310;2022-08-16T03:31:00;5.35;;;4.03;;
14052;SDS011;7101;51.600;7.310;2022-08-16T03:33:27;5.95;;;3.85;;
14052;SDS011;7101;51.600;7.310;2022-08-16T03:35:54;4.57;;;4.18;;
14052;SDS011;7101;51.600;7.310;2022-08-16T03:38:24;5.28;;;4.13;;
14052;SDS011;7101;51.600;7.310;2022-08-16T03:40:54;4.20;;;3.80;;
14052;SDS011;7101;51.600;7.310;2022-08-16T03:43:22;4.63;;;4.13;;
14052;SDS011;7101;51.600;7.310;2022-08-16T03:45:49;7.20;;;4.10;;
14052;SDS011;7101;51.600;7.310;2022-08-16T03:48:17;5.68;;;4.60;;
14052;SDS011;7101;51.600;7.310;2022-08-16T03:50:45;8.80;;;4.68;;
14052;SDS011;7101;51.600;7.310;2022-08-16T03:53:11;4.57;;;4.15;;
14052;SDS011;7101;51.600;7.310;2022-08-16T03:55:38;4.88;;;4.18;;
14052;SDS011;7101;51.600;7.310;2022-08-16T03:58:06;6.90;;;4.30;;
14052;SDS011;7101;51.600;7.310;2022-08-16T04:00:33;4.95;;;4.18;;
14052;SDS011;7101;51.600;7.310;2022-08-16T04:03:01;7.25;;;4.72;;
14052;SDS011;7101;51.600;7.310;2022-08-16T04:05:31;6.05;;;4.07;;
14052;SDS011;7101;51.600;7.310;2022-08-16T04:08:00;6.15;;;4.53;;
14052;SDS011;7101;51.600;7.310;2022-08-16T04:10:27;4.72;;;4.18;;
14052;SDS011;7101;51.600;7.310;2022-08-16T04:12:55;5.45;;;4.43;;
14052;SDS011;7101;51.600;7.310;2022-08-16T04:15:24;6.13;;;4.32;;
14052;SDS011;7101;51.600;7.310;2022-08-16T04:17:54;5.60;;;4.22;;
14052;SDS011;7101;51.600;7.310;2022-08-16T04:20:22;5.68;;;4.30;;
14052;SDS011;7101;51.600;7.310;2022-08-16T04:22:50;5.65;;;4.28;;
14052;SDS011;7101;51.600;7.310;2022-08-16T04:25:17;7.70;;;4.22;;
14052;SDS011;7101;51.600;7.310;2022-08-16T04:27:45;7.03;;;4.40;;
14052;SDS011;7101;51.600;7.310;2022-08-16T04:30:13;6.28;;;4.18;;
14052;SDS011;7101;51.600;7.310;2022-08-16T04:32:43;9.88;;;4.10;;
14052;SDS011;7101;51.600;7.310;2022-08-16T04:35:12;5.28;;;4.32;;
14052;SDS011;7101;51.600;7.310;2022-08-16T04:37:41;4.90;;;4.10;;
14052;SDS011;7101;51.600;7.310;2022-08-16T04:40:09;6.60;;;4.15;;
14052;SDS011;7101;51.600;7.310;2022-08-16T04:42:37;4.85;;;4.35;;
14052;SDS011;7101;51.600;7.310;2022-08-16T04:45:06;4.78;;;4.20;;
14052;SDS011;7101;51.600;7.310;2022-08-16T04:47:35;5.82;;;3.92;;
14052;SDS011;7101;51.600;7.310;2022-08-16T04:50:05;6.18;;;3.92;;
14052;SDS011;7101;51.600;7.310;2022-08-16T04:52:35;5.95;;;4.07;;
14052;SDS011;7101;51.600;7.310;2022-08-16T04:55:03;5.47;;;4.05;;
14052;SDS011;7101;51.600;7.310;2022-08-16T04:57:32;6.85;;;4.32;;
14052;SDS011;7101;51.600;7.310;2022-08-16T05:00:00;5.35;;;3.95;;
14052;SDS011;7101;51.600;7.310;2022-08-16T05:02:27;4.28;;;3.70;;
14052;SDS011;7101;51.600;7.310;2022-08-16T05:04:53;5.32;;;4.05;;
14052;SDS011;7101;51.600;7.310;2022-08-16T05:07:22;4.72;;;3.90;;
14052;SDS011;7101;51.600;7.310;2022-08-16T05:09:48;4.65;;;3.53;;
14052;SDS011;7101;51.600;7.310;2022-08-16T05:12:15;4.28;;;3.88;;
14052;SDS011;7101;51.600;7.310;2022-08-16T05:14:42;6.68;;;4.07;;
14052;SDS011;7101;51.600;7.310;2022-08-16T05:17:09;5.72;;;3.65;;
14052;SDS011;7101;51.600;7.310;2022-08-16T05:19:35;5.25;;;3.78;;
14052;SDS011;7101;51.600;7.310;2022-08-16T05:22:03;4.55;;;3.63;;
14052;SDS011;7101;51.600;7.310;2022-08-16T05:24:31;4.78;;;3.40;;
14052;SDS011;7101;51.600;7.310;2022-08-16T05:26:58;5.25;;;3.20;;
14052;SDS011;7101;51.600;7.310;2022-08-16T05:29:25;5.40;;;3.20;;
14052;SDS011;7101;51.600;7.310;2022-08-16T05:31:52;4.20;;;3.22;;
14052;SDS011;7101;51.600;7.310;2022-08-16T05:34:18;5.68;;;3.22;;
14052;SDS011;7101;51.600;7.310;2022-08-16T05:36:46;4.97;;;3.05;;
14052;SDS011;7101;51.600;7.310;2022-08-16T05:39:13;6.43;;;3.33;;
14052;SDS011;7101;51.600;7.310;2022-08-16T05:41:41;5.22;;;3.28;;
14052;SDS011;7101;51.600;7.310;2022-08-16T05:44:08;5.20;;;3.17;;
14052;SDS011;7101;51.600;7.310;2022-08-16T05:46:35;33.22;;;5.38;;
14052;SDS011;7101;51.600;7.310;2022-08-16T05:49:02;7.38;;;3.45;;
14052;SDS011;7101;51.600;7.310;2022-08-16T05:51:29;4.57;;;3.00;;
14052;SDS011;7101;51.600;7.310;2022-08-16T05:53:56;3.58;;;3.08;;
14052;SDS011;7101;51.600;7.310;2022-08-16T05:56:22;4.38;;;3.00;;
14052;SDS011;7101;51.600;7.310;2022-08-16T05:58:51;5.53;;;3.00;;
14052;SDS011;7101;51.600;7.310;2022-08-16T06:01:17;3.30;;;2.90;;
14052;SDS011;7101;51.600;7.310;2022-08-16T06:03:45;3.83;;;2.70;;
14052;SDS011;7101;51.600;7.310;2022-08-16T06:06:12;2.83;;;2.53;;
14052;SDS011;7101;51.600;7.310;2022-08-16T06:08:39;5.18;;;2.60;;
14052;SDS011;7101;51.600;7.310;2022-08-16T06:11:07;8.00;;;2.83;;
14052;SDS011;7101;51.600;7.310;2022-08-16T06:13:34;28.20;;;4.38;;
14052;SDS011;7101;51.600;7.310;2022-08-16T06:16:03;8.00;;;2.63;;
14052;SDS011;7101;51.600;7.310;2022-08-16T06:18:30;2.85;;;2.40;;
14052;SDS011;7101;51.600;7.310;2022-08-16T06:20:57;8.38;;;2.85;;
14052;SDS011;7101;51.600;7.310;2022-08-16T06:23:24;6.97;;;2.72;;
14052;SDS011;7101;51.600;7.310;2022-08-16T06:25:51;4.50;;;2.67;;
14052;SDS011;7101;51.600;7.310;2022-08-16T06:28:18;8.85;;;2.75;;
14052;SDS011;7101;51.600;7.310;2022-08-16T06:30:46;8.57;;;3.58;;
14052;SDS011;7101;51.600;7.310;2022-08-16T06:33:14;7.00;;;3.38;;
14052;SDS011;7101;51.600;7.310;2022-08-16T06:35:43;7.05;;;3.33;;
14052;SDS011;7101;51.600;7.310;2022-08-16T06:38:10;5.38;;;2.85;;
14052;SDS011;7101;51.600;7.310;2022-08-16T06:40:37;5.72;;;3.38;;
14052;SDS011;7101;51.600;7.310;2022-08-16T06:43:03;5.07;;;2.70;;
14052;SDS011;7101;51.600;7.310;2022-08-16T06:45:30;6.53;;;3.17;;
14052;SDS011;7101;51.600;7.310;2022-08-16T06:47:57;10.50;;;3.72;;
14052;SDS011;7101;51.600;7.310;2022-08-16T06:50:25;6.00;;;3.00;;
14052;SDS011;7101;51.600;7.310;2022-08-16T06:52:52;3.88;;;2.65;;
14052;SDS011;7101;51.600;7.310;2022-08-16T06:55:19;5.05;;;3.13;;
14052;SDS011;7101;51.600;7.310;2022-08-16T06:57:45;4.70;;;3.38;;
14052;SDS011;7101;51.600;7.310;2022-08-16T07:00:13;4.78;;;3.10;;
14052;SDS011;7101;51.600;7.310;2022-08-16T07:02:41;5.18;;;3.10;;
14052;SDS011;7101;51.600;7.310;2022-08-16T07:05:09;4.18;;;2.90;;
14052;SDS011;7101;51.600;7.310;2022-08-16T07:07:41;6.90;;;3.20;;
14052;SDS011;7101;51.600;7.310;2022-08-16T07:10:11;4.80;;;3.03;;
14052;SDS011;7101;51.600;7.310;2022-08-16T07:12:38;4.05;;;3.13;;
14052;SDS011;7101;51.600;7.310;2022-08-16T07:15:05;3.35;;;2.83;;
14052;SDS011;7101;51.600;7.310;2022-08-16T07:17:33;5.68;;;3.00;;
14052;SDS011;7101;51.600;7.310;2022-08-16T07:20:01;3.55;;;2.90;;
14052;SDS011;7101;51.600;7.310;2022-08-16T07:22:32;4.47;;;2.88;;
14052;SDS011;7101;51.600;7.310;2022-08-16T07:25:00;8.13;;;3.35;;
14052;SDS011;7101;51.600;7.310;2022-08-16T07:27:28;6.13;;;3.00;;
14052;SDS011;7101;51.600;7.310;2022-08-16T07:29:55;4.10;;;2.67;;
14052;SDS011;7101;51.600;7.310;2022-08-16T07:32:21;4.28;;;2.97;;
14052;SDS011;7101;51.600;7.310;2022-08-16T07:34:48;4.97;;;3.00;;
14052;SDS011;7101;51.600;7.310;2022-08-16T07:37:15;4.22;;;2.83;;
14052;SDS011;7101;51.600;7.310;2022-08-16T07:39:42;5.03;;;2.92;;
14052;SDS011;7101;51.600;7.310;2022-08-16T07:42:10;6.05;;;3.28;;
14052;SDS011;7101;51.600;7.310;2022-08-16T07:44:37;8.30;;;3.00;;
14052;SDS011;7101;51.600;7.310;2022-08-16T07:47:04;7.13;;;2.90;;
14052;SDS011;7101;51.600;7.310;2022-08-16T07:49:31;5.70;;;3.00;;
14052;SDS011;7101;51.600;7.310;2022-08-16T07:51:58;6.05;;;3.30;;
14052;SDS011;7101;51.600;7.310;2022-08-16T07:54:27;5.93;;;3.40;;
14052;SDS011;7101;51.600;7.310;2022-08-16T07:56:54;8.75;;;3.00;;
14052;SDS011;7101;51.600;7.310;2022-08-16T07:59:22;6.57;;;3.42;;
14052;SDS011;7101;51.600;7.310;2022-08-16T08:01:50;4.97;;;3.50;;
14052;SDS011;7101;51.600;7.310;2022-08-16T08:04:17;4.82;;;3.13;;
14052;SDS011;7101;51.600;7.310;2022-08-16T08:06:44;6.20;;;3.40;;
14052;SDS011;7101;51.600;7.310;2022-08-16T08:09:11;4.60;;;3.17;;
14052;SDS011;7101;51.600;7.310;2022-08-16T08:11:38;7.25;;;3.20;;
14052;SDS011;7101;51.600;7.310;2022-08-16T08:14:05;6.78;;;3.15;;
14052;SDS011;7101;51.600;7.310;2022-08-16T08:16:33;4.70;;;3.30;;
14052;SDS011;7101;51.600;7.310;2022-08-16T08:19:00;6.75;;;3.60;;
14052;SDS011;7101;51.600;7.310;2022-08-16T08:21:27;6.80;;;2.90;;
14052;SDS011;7101;51.600;7.310;2022-08-16T08:23:54;5.82;;;3.30;;
14052;SDS011;7101;51.600;7.310;2022-08-16T08:26:22;5.93;;;3.50;;
14052;SDS011;7101;51.600;7.310;2022-08-16T08:28:50;4.75;;;3.45;;
14052;SDS011;7101;51.600;7.310;2022-08-16T08:31:16;4.78;;;3.20;;
14052;SDS011;7101;51.600;7.310;2022-08-16T08:33:45;5.13;;;3.47;;
14052;SDS011;7101;51.600;7.310;2022-08-16T08:36:13;7.25;;;3.53;;
14052;SDS011;7101;51.600;7.310;2022-08-16T08:38:46;5.93;;;3.47;;
14052;SDS011;7101;51.600;7.310;2022-08-16T08:41:15;4.07;;;3.30;;
14052;SDS011;7101;51.600;7.310;2022-08-16T08:43:42;6.55;;;3.45;;
14052;SDS011;7101;51.600;7.310;2022-08-16T08:46:09;4.78;;;3.47;;
14052;SDS011;7101;51.600;7.310;2022-08-16T08:48:36;5.35;;;3.58;;
14052;SDS011;7101;51.600;7.310;2022-08-16T08:51:04;5.15;;;3.40;;
14052;SDS011;7101;51.600;7.310;2022-08-16T08:53:33;5.53;;;3.65;;
14052;SDS011;7101;51.600;7.310;2022-08-16T08:56:01;6.53;;;3.30;;
14052;SDS011;7101;51.600;7.310;2022-08-16T08:58:31;8.85;;;4.10;;
14052;SDS011;7101;51.600;7.310;2022-08-16T09:00:58;4.57;;;3.17;;
14052;SDS011;7101;51.600;7.310;2022-08-16T09:03:25;5.72;;;3.55;;
14052;SDS011;7101;51.600;7.310;2022-08-16T09:05:52;7.85;;;3.90;;
14052;SDS011;7101;51.600;7.310;2022-08-16T09:08:20;6.60;;;3.78;;
14052;SDS011;7101;51.600;7.310;2022-08-16T09:10:47;9.05;;;3.55;;
14052;SDS011;7101;51.600;7.310;2022-08-16T09:13:13;9.95;;;3.35;;
14052;SDS011;7101;51.600;7.310;2022-08-16T09:15:40;6.93;;;3.45;;
14052;SDS011;7101;51.600;7.310;2022-08-16T09:18:08;6.10;;;3.58;;
14052;SDS011;7101;51.600;7.310;2022-08-16T09:20:35;6.00;;;3.58;;
14052;SDS011;7101;51.600;7.310;2022-08-16T09:23:02;8.35;;;3.47;;
14052;SDS011;7101;51.600;7.310;2022-08-16T09:25:30;7.32;;;3.53;;
14052;SDS011;7101;51.600;7.310;2022-08-16T09:27:58;7.72;;;3.50;;
14052;SDS011;7101;51.600;7.310;2022-08-16T09:30:25;7.85;;;4.03;;
14052;SDS011;7101;51.600;7.310;2022-08-16T09:32:52;5.25;;;3.75;;
14052;SDS011;7101;51.600;7.310;2022-08-16T09:35:19;5.70;;;3.63;;
14052;SDS011;7101;51.600;7.310;2022-08-16T09:37:46;4.50;;;3.45;;
14052;SDS011;7101;51.600;7.310;2022-08-16T09:40:13;6.68;;;3.55;;
14052;SDS011;7101;51.600;7.310;2022-08-16T09:42:44;6.60;;;3.25;;
14052;SDS011;7101;51.600;7.310;2022-08-16T09:45:11;6.88;;;3.83;;
14052;SDS011;7101;51.600;7.310;2022-08-16T09:47:38;6.82;;;3.58;;
14052;SDS011;7101;51.600;7.310;2022-08-16T09:50:06;7.18;;;3.47;;
14052;SDS011;7101;51.600;7.310;2022-08-16T09:52:34;9.50;;;3.42;;
14052;SDS011;7101;51.600;7.310;2022-08-16T09:55:02;9.13;;;3.45;;
14052;SDS011;7101;51.600;7.310;2022-08-16T09:57:30;5.75;;;3.70;;
14052;SDS011;7101;51.600;7.310;2022-08-16T09:59:58;7.40;;;3.40;;
14052;SDS011;7101;51.600;7.310;2022-08-16T10:02:26;5.85;;;3.28;;
14052;SDS011;7101;51.600;7.310;2022-08-16T10:04:54;9.77;;;3.78;;
14052;SDS011;7101;51.600;7.310;2022-08-16T10:07:22;4.43;;;3.33;;
14052;SDS011;7101;51.600;7.310;2022-08-16T10:09:49;8.85;;;3.28;;
14052;SDS011;7101;51.600;7.310;2022-08-16T10:12:16;4.65;;;3.67;;
14052;SDS011;7101;51.600;7.310;2022-08-16T10:14:57;4.45;;;3.25;;
14052;SDS011;7101;51.600;7.310;2022-08-16T10:17:25;5.07;;;3.53;;
14052;SDS011;7101;51.600;7.310;2022-08-16T10:19:53;6.57;;;3.45;;
14052;SDS011;7101;51.600;7.310;2022-08-16T10:22:20;9.07;;;4.30;;
14052;SDS011;7101;51.600;7.310;2022-08-16T10:24:47;5.55;;;3.00;;
14052;SDS011;7101;51.600;7.310;2022-08-16T10:27:14;5.18;;;3.28;;
14052;SDS011;7101;51.600;7.310;2022-08-16T10:29:41;4.90;;;3.28;;
14052;SDS011;7101;51.600;7.310;2022-08-16T10:32:09;5.00;;;3.28;;
14052;SDS011;7101;51.600;7.310;2022-08-16T10:34:36;5.85;;;3.50;;
14052;SDS011;7101;51.600;7.310;2022-08-16T10:37:03;5.78;;;3.55;;
14052;SDS011;7101;51.600;7.310;2022-08-16T10:39:30;5.38;;;3.05;;
14052;SDS011;7101;51.600;7.310;2022-08-16T10:41:57;8.95;;;3.20;;
14052;SDS011;7101;51.600;7.310;2022-08-16T10:44:23;7.50;;;3.13;;
14052;SDS011;7101;51.600;7.310;2022-08-16T10:46:50;7.22;;;3.40;;
14052;SDS011;7101;51.600;7.310;2022-08-16T10:49:18;7.18;;;3.35;;
14052;SDS011;7101;51.600;7.310;2022-08-16T10:51:45;7.80;;;3.33;;
14052;SDS011;7101;51.600;7.310;2022-08-16T10:54:12;6.43;;;3.55;;
14052;SDS011;7101;51.600;7.310;2022-08-16T10:56:39;5.75;;;3.17;;
14052;SDS011;7101;51.600;7.310;2022-08-16T10:59:08;6.10;;;3.25;;
14052;SDS011;7101;51.600;7.310;2022-08-16T11:01:35;5.65;;;3.00;;
14052;SDS011;7101;51.600;7.310;2022-08-16T11:04:02;7.13;;;3.65;;
14052;SDS011;7101;51.600;7.310;2022-08-16T11:06:32;6.57;;;3.22;;
14052;SDS011;7101;51.600;7.310;2022-08-16T11:08:59;4.53;;;2.95;;
14052;SDS011;7101;51.600;7.310;2022-08-16T11:11:26;4.93;;;3.20;;
14052;SDS011;7101;51.600;7.310;2022-08-16T11:13:53;5.07;;;2.92;;
14052;SDS011;7101;51.600;7.310;2022-08-16T11:16:20;9.77;;;3.10;;
14052;SDS011;7101;51.600;7.310;2022-08-16T11:18:47;3.53;;;2.53;;
14052;SDS011;7101;51.600;7.310;2022-08-16T11:21:14;4.40;;;2.88;;
14052;SDS011;7101;51.600;7.310;2022-08-16T11:23:42;4.05;;;2.85;;
14052;SDS011;7101;51.600;7.310;2022-08-16T11:26:09;4.63;;;2.65;;
14052;SDS011;7101;51.600;7.310;2022-08-16T11:28:36;4.80;;;2.60;;
14052;SDS011;7101;51.600;7.310;2022-08-16T11:31:04;9.50;;;3.20;;
14052;SDS011;7101;51.600;7.310;2022-08-16T11:33:31;4.03;;;3.15;;
14052;SDS011;7101;51.600;7.310;2022-08-16T11:35:57;4.65;;;2.80;;
14052;SDS011;7101;51.600;7.310;2022-08-16T11:38:25;5.50;;;3.20;;
14052;SDS011;7101;51.600;7.310;2022-08-16T11:40:54;6.40;;;2.72;;
14052;SDS011;7101;51.600;7.310;2022-08-16T11:43:23;5.25;;;3.00;;
14052;SDS011;7101;51.600;7.310;2022-08-16T11:45:52;5.07;;;2.90;;
14052;SDS011;7101;51.600;7.310;2022-08-16T11:48:20;5.13;;;2.83;;
14052;SDS011;7101;51.600;7.310;2022-08-16T11:50:47;5.03;;;3.00;;
14052;SDS011;7101;51.600;7.310;2022-08-16T11:53:14;5.90;;;3.13;;
14052;SDS011;7101;51.600;7.310;2022-08-16T11:55:43;9.35;;;3.10;;
14052;SDS011;7101;51.600;7.310;2022-08-16T11:58:11;3.40;;;2.92;;
14052;SDS011;7101;51.600;7.310;2022-08-16T12:00:41;6.75;;;3.13;;
14052;SDS011;7101;51.600;7.310;2022-08-16T12:03:10;4.57;;;2.78;;
14052;SDS011;7101;51.600;7.310;2022-08-16T12:05:38;4.45;;;2.72;;
14052;SDS011;7101;51.600;7.310;2022-08-16T12:08:06;5.20;;;2.67;;
14052;SDS011;7101;51.600;7.310;2022-08-16T12:10:35;7.50;;;2.90;;
14052;SDS011;7101;51.600;7.310;2022-08-16T12:13:04;5.80;;;3.00;;
14052;SDS011;7101;51.600;7.310;2022-08-16T12:15:33;3.85;;;2.90;;
14052;SDS011;7101;51.600;7.310;2022-08-16T12:18:01;4.53;;;2.70;;
14052;SDS011;7101;51.600;7.310;2022-08-16T12:20:29;6.85;;;3.15;;
14052;SDS011;7101;51.600;7.310;2022-08-16T12:22:57;4.97;;;3.20;;
14052;SDS011;7101;51.600;7.310;2022-08-16T12:25:25;6.68;;;2.90;;
14052;SDS011;7101;51.600;7.310;2022-08-16T12:27:53;4.63;;;2.80;;
14052;SDS011;7101;51.600;7.310;2022-08-16T12:30:22;3.85;;;2.90;;
14052;SDS011;7101;51.600;7.310;2022-08-16T12:32:54;4.03;;;2.78;;
14052;SDS011;7101;51.600;7.310;2022-08-16T12:35:22;5.63;;;3.22;;
14052;SDS011;7101;51.600;7.310;2022-08-16T12:37:50;4.85;;;3.03;;
14052;SDS011;7101;51.600;7.310;2022-08-16T12:40:19;6.65;;;2.85;;
14052;SDS011;7101;51.600;7.310;2022-08-16T12:42:48;4.72;;;2.70;;
14052;SDS011;7101;51.600;7.310;2022-08-16T12:45:17;6.88;;;3.28;;
14052;SDS011;7101;51.600;7.310;2022-08-16T12:47:45;4.25;;;2.78;;
14052;SDS011;7101;51.600;7.310;2022-08-16T12:50:31;6.95;;;2.88;;
14052;SDS011;7101;51.600;7.310;2022-08-16T12:52:59;6.30;;;2.78;;
14052;SDS011;7101;51.600;7.310;2022-08-16T12:55:25;3.90;;;2.90;;
14052;SDS011;7101;51.600;7.310;2022-08-16T12:57:55;3.42;;;2.75;;
14052;SDS011;7101;51.600;7.310;2022-08-16T13:00:23;3.78;;;2.60;;
14052;SDS011;7101;51.600;7.310;2022-08-16T13:02:54;6.75;;;2.78;;
14052;SDS011;7101;51.600;7.310;2022-08-16T13:05:21;9.82;;;2.83;;
14052;SDS011;7101;51.600;7.310;2022-08-16T13:07:50;3.38;;;2.72;;
14052;SDS011;7101;51.600;7.310;2022-08-16T13:10:19;5.00;;;2.80;;
14052;SDS011;7101;51.600;7.310;2022-08-16T13:12:47;5.28;;;2.72;;
14052;SDS011;7101;51.600;7.310;2022-08-16T13:15:18;4.38;;;2.72;;
14052;SDS011;7101;51.600;7.310;2022-08-16T13:17:46;5.25;;;2.65;;
14052;SDS011;7101;51.600;7.310;2022-08-16T13:20:14;4.90;;;2.55;;
14052;SDS011;7101;51.600;7.310;2022-08-16T13:22:45;4.15;;;2.85;;
14052;SDS011;7101;51.600;7.310;2022-08-16T13:25:17;7.35;;;3.25;;
14052;SDS011;7101;51.600;7.310;2022-08-16T13:27:46;6.85;;;2.83;;
14052;SDS011;7101;51.600;7.310;2022-08-16T13:30:13;5.60;;;2.95;;
14052;SDS011;7101;51.600;7.310;2022-08-16T13:32:40;5.38;;;2.78;;
14052;SDS011;7101;51.600;7.310;2022-08-16T13:35:07;5.63;;;3.22;;
14052;SDS011;7101;51.600;7.310;2022-08-16T13:37:34;5.25;;;3.05;;
14052;SDS011;7101;51.600;7.310;2022-08-16T13:40:02;4.65;;;2.90;;
14052;SDS011;7101;51.600;7.310;2022-08-16T13:42:31;4.80;;;3.00;;
14052;SDS011;7101;51.600;7.310;2022-08-16T13:44:58;4.82;;;2.85;;
14052;SDS011;7101;51.600;7.310;2022-08-16T13:47:25;5.80;;;3.25;;
14052;SDS011;7101;51.600;7.310;2022-08-16T13:49:52;8.60;;;3.28;;
14052;SDS011;7101;51.600;7.310;2022-08-16T13:52:19;5.13;;;3.00;;
14052;SDS011;7101;51.600;7.310;2022-08-16T13:54:48;14.30;;;3.50;;
14052;SDS011;7101;51.600;7.310;2022-08-16T13:57:15;7.78;;;3.10;;
14052;SDS011;7101;51.600;7.310;2022-08-16T13:59:43;5.50;;;2.67;;
14052;SDS011;7101;51.600;7.310;2022-08-16T14:02:12;4.35;;;2.85;;
14052;SDS011;7101;51.600;7.310;2022-08-16T14:04:39;8.13;;;2.85;;
14052;SDS011;7101;51.600;7.310;2022-08-16T14:07:07;5.90;;;2.95;;
14052;SDS011;7101;51.600;7.310;2022-08-16T14:09:36;14.20;;;3.00;;
14052;SDS011;7101;51.600;7.310;2022-08-16T14:12:03;5.97;;;3.10;;
14052;SDS011;7101;51.600;7.310;2022-08-16T14:14:31;3.38;;;2.50;;
14052;SDS011;7101;51.600;7.310;2022-08-16T14:17:00;6.40;;;3.10;;
14052;SDS011;7101;51.600;7.310;2022-08-16T14:19:27;8.63;;;3.55;;
14052;SDS011;7101;51.600;7.310;2022-08-16T14:21:55;4.72;;;2.80;;
14052;SDS011;7101;51.600;7.310;2022-08-16T14:24:22;8.57;;;3.42;;
14052;SDS011;7101;51.600;7.310;2022-08-16T14:26:49;7.38;;;3.58;;
14052;SDS011;7101;51.600;7.310;2022-08-16T14:29:16;5.93;;;3.35;;
14052;SDS011;7101;51.600;7.310;2022-08-16T14:31:43;5.82;;;3.58;;
14052;SDS011;7101;51.600;7.310;2022-08-16T14:34:11;8.05;;;3.65;;
14052;SDS011;7101;51.600;7.310;2022-08-16T14:36:38;4.45;;;3.15;;
14052;SDS011;7101;51.600;7.310;2022-08-16T14:39:05;5.03;;;3.70;;
14052;SDS011;7101;51.600;7.310;2022-08-16T14:41:32;7.78;;;3.45;;
14052;SDS011;7101;51.600;7.310;2022-08-16T14:43:59;8.07;;;3.70;;
14052;SDS011;7101;51.600;7.310;2022-08-16T14:46:26;4.93;;;3.30;;
14052;SDS011;7101;51.600;7.310;2022-08-16T14:48:55;5.63;;;3.45;;
14052;SDS011;7101;51.600;7.310;2022-08-16T14:51:23;11.65;;;3.72;;
14052;SDS011;7101;51.600;7.310;2022-08-16T14:53:49;6.97;;;3.30;;
14052;SDS011;7101;51.600;7.310;2022-08-16T14:56:16;8.48;;;3.78;;
14052;SDS011;7101;51.600;7.310;2022-08-16T14:58:43;7.18;;;3.40;;
14052;SDS011;7101;51.600;7.310;2022-08-16T15:01:13;5.88;;;3.80;;
14052;SDS011;7101;51.600;7.310;2022-08-16T15:03:43;9.60;;;3.25;;